createdAt,value
2019-03-22T00:00:22.096Z,10.90
2019-03-22T00:02:50.580Z,10.90
2019-03-22T00:05:19.107Z,10.90
2019-03-22T00:07:48.758Z,10.80
2019-03-22T00:10:17.438Z,10.80
2019-03-22T00:12:45.876Z,10.80
2019-03-22T00:15:15.064Z,10.70
2019-03-22T00:17:43.511Z,10.70
2019-03-22T00:20:13.774Z,10.70
2019-03-22T00:22:42.283Z,10.70
2019-03-22T00:25:11.060Z,10.60
2019-03-22T00:27:39.527Z,10.60
2019-03-22T00:30:09.683Z,10.50
2019-03-22T00:32:38.268Z,10.50
2019-03-22T00:35:08.068Z,10.50
2019-03-22T00:37:36.662Z,10.50
2019-03-22T00:40:06.847Z,10.50
2019-03-22T00:42:35.305Z,10.40
2019-03-22T00:45:06.015Z,10.40
2019-03-22T00:47:34.457Z,10.40
2019-03-22T00:50:05.043Z,10.40
2019-03-22T00:52:33.567Z,10.40
2019-03-22T00:55:02.016Z,10.40
2019-03-22T00:57:30.479Z,10.30
2019-03-22T00:59:58.909Z,10.20
2019-03-22T01:02:27.371Z,10.20
2019-03-22T01:04:55.812Z,10.10
2019-03-22T01:07:24.384Z,10.00
2019-03-22T01:09:53.056Z,10.00
2019-03-22T01:12:21.668Z,10.00
2019-03-22T01:14:51.242Z,9.90
2019-03-22T01:17:19.742Z,9.90
2019-03-22T01:19:50.823Z,9.80
2019-03-22T01:22:19.428Z,9.80
2019-03-22T01:24:47.955Z,9.70
2019-03-22T01:27:16.529Z,9.70
2019-03-22T01:29:44.984Z,9.70
2019-03-22T01:32:13.444Z,9.70
2019-03-22T01:34:42.038Z,9.70
2019-03-22T01:37:10.558Z,9.80
2019-03-22T01:39:39.040Z,9.70
2019-03-22T01:42:07.741Z,9.70
2019-03-22T01:44:36.471Z,9.70
2019-03-22T01:47:05.072Z,9.70
2019-03-22T01:49:33.536Z,9.70
2019-03-22T01:52:01.969Z,9.60
2019-03-22T01:54:30.521Z,9.60
2019-03-22T01:56:59.095Z,9.60
2019-03-22T01:59:27.522Z,9.60
2019-03-22T02:01:55.972Z,9.60
2019-03-22T02:04:24.400Z,9.60
2019-03-22T02:06:52.928Z,9.60
2019-03-22T02:09:21.473Z,9.70
2019-03-22T02:11:49.950Z,9.70
2019-03-22T02:14:18.478Z,9.70
2019-03-22T02:16:47.033Z,9.70
2019-03-22T02:19:15.514Z,9.70
2019-03-22T02:21:44.719Z,9.70
2019-03-22T02:24:13.185Z,9.70
2019-03-22T02:26:41.760Z,9.60
2019-03-22T02:29:10.207Z,9.60
2019-03-22T02:31:38.652Z,9.60
2019-03-22T02:34:07.103Z,9.60
2019-03-22T02:36:35.643Z,9.60
2019-03-22T02:39:05.882Z,9.60
2019-03-22T02:41:34.336Z,9.60
2019-03-22T02:44:02.884Z,9.50
2019-03-22T02:46:31.382Z,9.40
2019-03-22T02:48:59.838Z,9.40
2019-03-22T02:51:28.376Z,9.40
2019-03-22T02:54:16.243Z,9.40
2019-03-22T02:56:44.737Z,9.40
2019-03-22T02:59:13.188Z,9.30
2019-03-22T03:01:41.636Z,9.30
2019-03-22T03:04:29.459Z,9.20
2019-03-22T03:06:57.958Z,9.20
2019-03-22T03:09:26.398Z,9.20
2019-03-22T03:11:54.827Z,9.20
2019-03-22T03:14:23.361Z,9.20
2019-03-22T03:16:51.855Z,9.20
2019-03-22T03:19:20.394Z,9.20
2019-03-22T03:21:48.889Z,9.20
2019-03-22T03:24:17.382Z,9.20
2019-03-22T03:26:45.852Z,9.10
2019-03-22T03:29:14.308Z,9.10
2019-03-22T03:31:42.743Z,9.00
2019-03-22T03:34:11.202Z,9.00
2019-03-22T03:36:39.697Z,9.00
2019-03-22T03:39:08.750Z,9.00
2019-03-22T03:41:37.374Z,9.00
2019-03-22T03:44:05.964Z,9.10
2019-03-22T03:46:34.473Z,9.10
2019-03-22T03:49:22.256Z,9.10
2019-03-22T03:51:50.697Z,9.10
2019-03-22T03:54:19.207Z,9.00
2019-03-22T03:56:47.709Z,9.00
2019-03-22T03:59:16.156Z,9.00
2019-03-22T04:01:44.580Z,9.00
2019-03-22T04:04:13.029Z,9.00
2019-03-22T04:06:41.465Z,9.10
2019-03-22T04:09:09.920Z,9.00
2019-03-22T04:11:38.348Z,9.00
2019-03-22T04:14:06.871Z,8.90
2019-03-22T04:16:35.400Z,8.80
2019-03-22T04:19:04.076Z,8.80
2019-03-22T04:21:32.503Z,8.80
2019-03-22T04:24:01.025Z,8.70
2019-03-22T04:26:29.535Z,8.70
2019-03-22T04:29:07.488Z,8.70
2019-03-22T04:31:28.153Z,8.70
2019-03-22T04:33:56.656Z,8.60
2019-03-22T04:36:25.109Z,8.60
2019-03-22T04:38:53.548Z,8.60
2019-03-22T04:41:22.000Z,8.50
2019-03-22T04:43:50.456Z,8.50
2019-03-22T04:46:19.124Z,8.50
2019-03-22T04:48:48.212Z,8.40
2019-03-22T04:51:17.980Z,8.50
2019-03-22T04:53:49.836Z,8.50
2019-03-22T04:56:21.215Z,8.40
2019-03-22T04:58:51.092Z,8.40
2019-03-22T05:01:21.072Z,8.30
2019-03-22T05:03:49.670Z,8.30
2019-03-22T05:06:24.931Z,8.30
2019-03-22T05:08:55.412Z,8.30
2019-03-22T05:11:26.303Z,8.30
2019-03-22T05:13:57.596Z,8.30
2019-03-22T05:16:26.103Z,8.30
2019-03-22T05:18:54.986Z,8.30
2019-03-22T05:21:26.484Z,8.30
2019-03-22T05:24:00.051Z,8.30
2019-03-22T05:26:31.319Z,8.30
2019-03-22T05:29:00.262Z,8.30
2019-03-22T05:31:31.830Z,8.20
2019-03-22T05:34:00.353Z,8.20
2019-03-22T05:36:28.884Z,8.20
2019-03-22T05:38:57.320Z,8.10
2019-03-22T05:41:25.815Z,8.10
2019-03-22T05:43:54.267Z,8.10
2019-03-22T05:46:22.703Z,8.20
2019-03-22T05:48:51.160Z,8.20
2019-03-22T05:51:19.588Z,8.20
2019-03-22T05:53:48.060Z,8.20
2019-03-22T05:56:16.493Z,8.30
2019-03-22T05:58:44.935Z,8.30
2019-03-22T06:01:13.367Z,8.40
2019-03-22T06:03:41.819Z,8.50
2019-03-22T06:06:10.267Z,8.50
2019-03-22T06:08:38.778Z,8.50
2019-03-22T06:11:07.239Z,8.60
2019-03-22T06:13:35.683Z,8.60
2019-03-22T06:16:04.204Z,8.60
2019-03-22T06:18:32.710Z,8.60
2019-03-22T06:21:01.175Z,8.60
2019-03-22T06:23:29.619Z,8.70
2019-03-22T06:25:58.159Z,8.70
2019-03-22T06:28:26.676Z,8.70
2019-03-22T06:30:55.113Z,8.70
2019-03-22T06:33:23.583Z,8.70
2019-03-22T06:35:52.074Z,8.80
2019-03-22T06:38:20.524Z,8.80
2019-03-22T06:40:48.981Z,8.90
2019-03-22T06:43:17.435Z,8.90
2019-03-22T06:45:45.874Z,8.90
2019-03-22T06:48:14.331Z,9.00
2019-03-22T06:50:42.764Z,9.00
2019-03-22T06:53:11.275Z,8.90
2019-03-22T06:55:39.708Z,9.00
2019-03-22T06:58:08.224Z,9.00
2019-03-22T07:00:36.809Z,9.10
2019-03-22T07:03:05.440Z,9.10
2019-03-22T07:05:33.863Z,9.10
2019-03-22T07:08:02.332Z,9.20
2019-03-22T07:10:36.647Z,9.20
2019-03-22T07:13:05.142Z,9.20
2019-03-22T07:15:33.603Z,9.20
2019-03-22T07:18:02.074Z,9.10
2019-03-22T07:20:30.531Z,9.10
2019-03-22T07:22:58.969Z,9.00
2019-03-22T07:25:27.424Z,9.10
2019-03-22T07:27:56.247Z,9.20
2019-03-22T07:30:24.718Z,9.30
2019-03-22T07:32:53.160Z,9.40
2019-03-22T07:35:21.629Z,9.50
2019-03-22T07:37:50.055Z,9.50
2019-03-22T07:40:18.585Z,9.50
2019-03-22T07:42:47.091Z,9.50
2019-03-22T07:45:15.762Z,9.60
2019-03-22T07:47:44.190Z,9.70
2019-03-22T07:50:13.265Z,9.70
2019-03-22T07:52:41.739Z,9.80
2019-03-22T07:55:11.520Z,9.90
2019-03-22T07:57:39.980Z,10.00
2019-03-22T08:00:11.451Z,10.10
2019-03-22T08:02:39.917Z,10.10
2019-03-22T08:05:08.564Z,10.10
2019-03-22T08:07:37.036Z,10.20
2019-03-22T08:10:07.510Z,10.40
2019-03-22T08:12:36.039Z,10.50
2019-03-22T08:15:08.204Z,10.70
2019-03-22T08:17:36.028Z,10.80
2019-03-22T08:20:07.181Z,10.90
2019-03-22T08:22:35.757Z,11.10
2019-03-22T08:25:04.987Z,11.20
2019-03-22T08:27:33.449Z,11.30
2019-03-22T08:30:07.371Z,11.40
2019-03-22T08:32:35.826Z,11.50
2019-03-22T08:35:04.732Z,11.50
2019-03-22T08:37:33.213Z,11.60
2019-03-22T08:40:01.730Z,11.70
2019-03-22T08:42:30.203Z,11.70
2019-03-22T08:44:58.753Z,11.80
2019-03-22T08:47:33.694Z,11.90
2019-03-22T08:49:57.481Z,12.10
2019-03-22T08:52:25.980Z,12.20
2019-03-22T08:54:54.452Z,12.30
2019-03-22T08:57:24.966Z,12.50
2019-03-22T08:59:53.080Z,12.60
2019-03-22T09:02:21.626Z,12.70
2019-03-22T09:04:50.387Z,12.80
2019-03-22T09:07:18.846Z,13.00
2019-03-22T09:09:47.318Z,13.10
2019-03-22T09:12:15.862Z,13.20
2019-03-22T09:14:44.371Z,13.40
2019-03-22T09:17:12.834Z,13.50
2019-03-22T09:19:41.267Z,13.60
2019-03-22T09:22:09.827Z,13.60
2019-03-22T09:24:39.567Z,13.70
2019-03-22T09:27:08.294Z,13.80
2019-03-22T09:29:36.751Z,13.90
2019-03-22T09:32:05.205Z,13.90
2019-03-22T09:34:34.274Z,14.10
2019-03-22T09:37:03.029Z,14.10
2019-03-22T09:39:31.538Z,14.10
2019-03-22T09:41:59.972Z,14.20
2019-03-22T09:44:28.607Z,14.40
2019-03-22T09:46:57.198Z,14.50
2019-03-22T09:49:25.749Z,14.70
2019-03-22T09:51:55.309Z,14.80
2019-03-22T09:54:24.053Z,14.80
2019-03-22T09:56:52.501Z,14.90
2019-03-22T09:59:20.995Z,14.90
2019-03-22T10:01:49.531Z,15.00
2019-03-22T10:04:18.049Z,15.10
2019-03-22T10:06:46.508Z,15.20
2019-03-22T10:09:15.000Z,15.30
2019-03-22T10:11:43.492Z,15.30
2019-03-22T10:14:11.970Z,15.50
2019-03-22T10:16:40.416Z,15.70
2019-03-22T10:19:08.955Z,15.80
2019-03-22T10:21:37.448Z,15.90
2019-03-22T10:24:06.015Z,16.10
2019-03-22T10:26:34.533Z,16.30
2019-03-22T10:29:03.091Z,16.40
2019-03-22T10:31:37.168Z,16.30
2019-03-22T10:34:01.952Z,16.30
2019-03-22T10:36:30.563Z,16.40
2019-03-22T10:38:59.063Z,16.60
2019-03-22T10:41:27.703Z,16.70
2019-03-22T10:43:56.145Z,16.90
2019-03-22T10:46:24.616Z,17.00
2019-03-22T10:48:53.166Z,17.10
2019-03-22T10:51:21.941Z,17.20
2019-03-22T10:53:50.643Z,17.30
2019-03-22T10:56:19.149Z,17.40
2019-03-22T10:58:47.685Z,17.50
2019-03-22T11:01:16.139Z,17.50
2019-03-22T11:03:44.726Z,17.60
2019-03-22T11:06:13.599Z,17.60
2019-03-22T11:08:42.100Z,17.60
2019-03-22T11:11:13.980Z,17.70
2019-03-22T11:13:42.533Z,17.80
2019-03-22T11:16:11.176Z,17.80
2019-03-22T11:18:41.935Z,17.80
2019-03-22T11:21:10.436Z,17.80
2019-03-22T11:23:39.968Z,17.80
2019-03-22T11:26:08.433Z,17.80
2019-03-22T11:28:36.874Z,17.80
2019-03-22T11:31:05.687Z,17.90
2019-03-22T11:33:34.122Z,18.00
2019-03-22T11:36:02.588Z,18.20
2019-03-22T11:38:31.117Z,18.20
2019-03-22T11:41:05.310Z,18.20
2019-03-22T11:43:33.762Z,18.30
2019-03-22T11:46:02.220Z,18.40
2019-03-22T11:48:30.800Z,18.50
2019-03-22T11:50:59.309Z,18.70
2019-03-22T11:53:28.895Z,18.80
2019-03-22T11:55:57.360Z,18.80
2019-03-22T11:58:25.794Z,18.90
2019-03-22T12:00:54.319Z,19.00
2019-03-22T12:03:22.753Z,19.10
2019-03-22T12:05:51.279Z,19.20
2019-03-22T12:08:19.786Z,19.30
2019-03-22T12:11:07.571Z,19.40
2019-03-22T12:13:36.080Z,19.50
2019-03-22T12:16:04.866Z,19.70
2019-03-22T12:18:33.387Z,19.70
2019-03-22T12:21:01.852Z,19.80
2019-03-22T12:23:30.278Z,20.00
2019-03-22T12:25:58.735Z,20.10
2019-03-22T12:28:27.209Z,20.10
2019-03-22T12:30:55.720Z,20.20
2019-03-22T12:33:25.215Z,20.30
2019-03-22T12:35:53.918Z,20.40
2019-03-22T12:38:22.375Z,20.60
2019-03-22T12:40:50.812Z,20.70
2019-03-22T12:43:19.294Z,20.80
2019-03-22T12:45:47.779Z,21.10
2019-03-22T12:48:16.313Z,21.20
2019-03-22T12:50:44.764Z,21.30
2019-03-22T12:53:13.284Z,21.40
2019-03-22T12:55:41.723Z,21.40
2019-03-22T12:58:10.179Z,21.60
2019-03-22T13:00:38.761Z,21.80
2019-03-22T13:03:07.284Z,22.10
2019-03-22T13:05:35.794Z,22.10
2019-03-22T13:08:04.382Z,22.20
2019-03-22T13:10:32.976Z,22.30
2019-03-22T13:13:01.412Z,22.60
2019-03-22T13:15:29.863Z,22.60
2019-03-22T13:17:58.385Z,22.70
2019-03-22T13:20:26.888Z,22.80
2019-03-22T13:22:55.324Z,23.00
2019-03-22T13:25:23.785Z,23.20
2019-03-22T13:27:52.217Z,23.30
2019-03-22T13:30:37.117Z,23.50
2019-03-22T13:33:05.902Z,23.60
2019-03-22T13:35:34.515Z,23.80
2019-03-22T13:38:03.149Z,23.90
2019-03-22T13:40:31.588Z,24.20
2019-03-22T13:43:00.071Z,24.40
2019-03-22T13:45:28.577Z,24.40
2019-03-22T13:47:57.214Z,24.60
2019-03-22T13:50:25.792Z,24.70
2019-03-22T13:52:54.333Z,24.90
2019-03-22T13:55:22.850Z,25.10
2019-03-22T13:57:54.304Z,25.20
2019-03-22T14:00:22.743Z,25.60
2019-03-22T14:02:51.205Z,25.80
2019-03-22T14:05:19.629Z,26.10
2019-03-22T14:07:49.114Z,26.20
2019-03-22T14:10:34.776Z,26.40
2019-03-22T14:13:05.571Z,26.70
2019-03-22T14:15:34.231Z,26.70
2019-03-22T14:18:02.729Z,26.90
2019-03-22T14:20:31.326Z,26.60
2019-03-22T14:23:05.996Z,25.80
2019-03-22T14:25:34.590Z,24.70
2019-03-22T14:28:03.063Z,24.00
2019-03-22T14:30:31.671Z,23.40
2019-03-22T14:33:00.115Z,23.00
2019-03-22T14:35:28.674Z,22.60
2019-03-22T14:37:57.190Z,22.30
2019-03-22T14:40:25.704Z,22.10
2019-03-22T14:42:54.196Z,21.90
2019-03-22T14:45:22.890Z,21.70
2019-03-22T14:47:51.396Z,21.60
2019-03-22T14:50:19.919Z,21.40
2019-03-22T14:52:49.009Z,21.30
2019-03-22T14:55:17.503Z,21.10
2019-03-22T14:57:50.139Z,21.10
2019-03-22T15:00:17.099Z,21.10
2019-03-22T15:02:45.592Z,21.10
2019-03-22T15:05:14.023Z,21.00
2019-03-22T15:07:43.540Z,21.00
2019-03-22T15:10:13.056Z,21.00
2019-03-22T15:12:42.131Z,20.90
2019-03-22T15:15:24.967Z,20.80
2019-03-22T15:18:03.864Z,20.80
2019-03-22T15:20:33.945Z,20.70
2019-03-22T15:23:20.288Z,20.70
2019-03-22T15:26:06.933Z,20.60
2019-03-22T15:28:37.096Z,20.60
2019-03-22T15:31:07.325Z,20.60
2019-03-22T15:33:53.879Z,20.50
2019-03-22T15:36:46.071Z,20.40
2019-03-22T15:42:00.653Z,20.30
2019-03-22T15:44:29.236Z,20.30
2019-03-22T15:46:57.744Z,20.40
2019-03-22T15:49:26.203Z,20.40
2019-03-22T15:51:54.655Z,20.40
2019-03-22T15:54:23.902Z,20.30
2019-03-22T15:56:52.328Z,20.30
2019-03-22T15:59:20.868Z,20.30
2019-03-22T16:01:49.378Z,20.30
2019-03-22T16:04:18.832Z,20.30
2019-03-22T16:06:47.418Z,20.20
2019-03-22T16:09:16.067Z,20.30
2019-03-22T16:11:46.900Z,20.20
2019-03-22T16:14:15.484Z,20.20
2019-03-22T16:16:44.144Z,20.10
2019-03-22T16:19:12.997Z,20.00
2019-03-22T16:21:41.518Z,20.00
2019-03-22T16:24:10.027Z,20.00
2019-03-22T16:26:38.510Z,20.00
2019-03-22T16:29:08.151Z,20.00
2019-03-22T16:31:36.670Z,20.00
2019-03-22T16:34:05.238Z,19.90
2019-03-22T16:36:33.863Z,19.90
2019-03-22T16:39:02.384Z,19.80
2019-03-22T16:41:30.905Z,19.80
2019-03-22T16:43:59.437Z,19.70
2019-03-22T16:46:27.895Z,19.60
2019-03-22T16:48:56.361Z,19.60
2019-03-22T16:51:24.981Z,19.60
2019-03-22T16:53:53.426Z,19.60
2019-03-22T16:56:21.921Z,19.50
2019-03-22T16:58:50.436Z,19.40
2019-03-22T17:01:18.989Z,19.30
2019-03-22T17:03:47.577Z,19.30
2019-03-22T17:06:21.919Z,19.30
2019-03-22T17:08:50.438Z,19.20
2019-03-22T17:11:18.880Z,19.20
2019-03-22T17:13:47.347Z,19.10
2019-03-22T17:16:16.813Z,19.10
2019-03-22T17:18:45.326Z,19.00
2019-03-22T17:21:13.991Z,19.00
2019-03-22T17:23:42.504Z,18.90
2019-03-22T17:26:11.346Z,18.90
2019-03-22T17:28:39.854Z,18.80
2019-03-22T17:31:08.476Z,18.70
2019-03-22T17:33:36.928Z,18.70
2019-03-22T17:36:05.385Z,18.60
2019-03-22T17:38:33.971Z,18.60
2019-03-22T17:41:02.451Z,18.50
2019-03-22T17:43:30.908Z,18.40
2019-03-22T17:45:59.419Z,18.40
2019-03-22T17:48:27.892Z,18.30
2019-03-22T17:50:56.427Z,18.30
2019-03-22T17:53:24.873Z,18.20
2019-03-22T17:55:53.391Z,18.20
2019-03-22T17:58:21.895Z,18.10
2019-03-22T18:00:50.503Z,18.10
2019-03-22T18:03:18.979Z,18.10
2019-03-22T18:05:47.416Z,18.00
2019-03-22T18:08:15.869Z,18.00
2019-03-22T18:10:44.365Z,17.90
2019-03-22T18:13:12.825Z,18.00
2019-03-22T18:15:41.260Z,18.00
2019-03-22T18:18:09.707Z,17.90
2019-03-22T18:20:38.160Z,17.90
2019-03-22T18:23:06.692Z,17.90
2019-03-22T18:25:35.195Z,17.80
2019-03-22T18:28:03.680Z,17.80
2019-03-22T18:30:51.464Z,17.70
2019-03-22T18:33:19.916Z,17.70
2019-03-22T18:35:48.346Z,17.70
2019-03-22T18:38:16.788Z,17.60
2019-03-22T18:40:45.255Z,17.50
2019-03-22T18:43:13.693Z,17.50
2019-03-22T18:45:42.159Z,17.40
2019-03-22T18:48:10.599Z,17.40
2019-03-22T18:50:39.052Z,17.30
2019-03-22T18:53:07.562Z,17.30
2019-03-22T18:55:36.020Z,17.20
2019-03-22T18:58:04.600Z,17.20
2019-03-22T19:00:33.563Z,17.10
2019-03-22T19:03:02.368Z,17.00
2019-03-22T19:05:30.975Z,17.00
2019-03-22T19:07:59.467Z,16.90
2019-03-22T19:10:27.932Z,16.90
2019-03-22T19:12:56.479Z,16.90
2019-03-22T19:15:24.969Z,16.80
2019-03-22T19:17:53.429Z,16.80
2019-03-22T19:20:21.935Z,16.70
2019-03-22T19:22:50.392Z,16.70
2019-03-22T19:25:18.855Z,16.60
2019-03-22T19:27:47.437Z,16.60
2019-03-22T19:30:16.668Z,16.60
2019-03-22T19:32:45.192Z,16.60
2019-03-22T19:35:13.713Z,16.60
2019-03-22T19:37:42.227Z,16.60
2019-03-22T19:40:13.120Z,16.50
2019-03-22T19:42:41.706Z,16.50
2019-03-22T19:45:11.586Z,16.40
2019-03-22T19:47:40.034Z,16.40
2019-03-22T19:50:10.883Z,16.40
2019-03-22T19:52:39.348Z,16.30
2019-03-22T19:55:09.501Z,16.30
2019-03-22T19:57:38.271Z,16.30
2019-03-22T20:00:15.659Z,16.20
2019-03-22T20:02:50.839Z,16.10
2019-03-22T20:05:31.402Z,16.10
2019-03-22T20:08:00.677Z,16.10
2019-03-22T20:10:29.201Z,16.00
2019-03-22T20:12:57.819Z,16.00
2019-03-22T20:15:26.271Z,16.00
2019-03-22T20:17:54.779Z,15.90
2019-03-22T20:20:42.567Z,15.90
2019-03-22T20:23:11.076Z,15.80
2019-03-22T20:25:39.552Z,15.80
2019-03-22T20:28:08.071Z,15.70
2019-03-22T20:30:37.623Z,15.60
2019-03-22T20:33:06.395Z,15.60
2019-03-22T20:35:34.843Z,15.50
2019-03-22T20:38:03.306Z,15.50
2019-03-22T20:40:51.105Z,15.40
2019-03-22T20:43:21.182Z,15.40
2019-03-22T20:45:49.898Z,15.40
2019-03-22T20:48:18.353Z,15.30
2019-03-22T20:50:46.860Z,15.30
2019-03-22T20:53:15.418Z,15.30
2019-03-22T20:55:43.922Z,15.20
2019-03-22T20:58:12.375Z,15.20
2019-03-22T21:00:40.838Z,15.20
2019-03-22T21:03:09.305Z,15.20
2019-03-22T21:05:37.739Z,15.10
2019-03-22T21:08:06.262Z,15.00
2019-03-22T21:10:34.723Z,15.00
2019-03-22T21:13:03.250Z,14.80
2019-03-22T21:15:31.760Z,14.80
2019-03-22T21:18:00.225Z,14.70
2019-03-22T21:20:28.749Z,14.70
2019-03-22T21:22:57.187Z,14.70
2019-03-22T21:25:25.656Z,14.70
2019-03-22T21:27:54.240Z,14.70
2019-03-22T21:30:22.770Z,14.60
2019-03-22T21:32:51.226Z,14.60
2019-03-22T21:35:22.889Z,14.60
2019-03-22T21:37:50.034Z,14.60
2019-03-22T21:40:18.503Z,14.60
2019-03-22T21:42:47.140Z,14.50
2019-03-22T21:45:15.650Z,14.50
2019-03-22T21:47:44.160Z,14.50
2019-03-22T21:50:12.680Z,14.50
2019-03-22T21:52:41.123Z,14.40
2019-03-22T21:55:10.128Z,14.40
2019-03-22T21:57:38.562Z,14.40
2019-03-22T22:00:12.752Z,14.30
2019-03-22T22:02:41.259Z,14.30
2019-03-22T22:05:09.947Z,14.30
2019-03-22T22:07:38.503Z,14.30
2019-03-22T22:10:11.119Z,14.20
2019-03-22T22:12:39.621Z,14.20
2019-03-22T22:15:27.440Z,14.20
2019-03-22T22:17:55.987Z,14.10
2019-03-22T22:20:29.006Z,14.10
2019-03-22T22:22:55.075Z,14.10
2019-03-22T22:25:23.522Z,14.10
2019-03-22T22:27:51.962Z,14.10
2019-03-22T22:30:20.419Z,14.00
2019-03-22T22:32:48.857Z,14.00
2019-03-22T22:35:17.327Z,14.00
2019-03-22T22:37:45.839Z,14.00
2019-03-22T22:40:14.490Z,14.00
2019-03-22T22:42:42.929Z,13.90
2019-03-22T22:45:11.807Z,13.90
2019-03-22T22:47:40.487Z,13.90
2019-03-22T22:50:10.709Z,13.90
2019-03-22T22:52:39.160Z,13.90
2019-03-22T22:55:09.155Z,13.80
2019-03-22T22:57:37.597Z,13.70
2019-03-22T23:00:17.292Z,13.70
2019-03-22T23:02:45.742Z,13.70
2019-03-22T23:05:14.444Z,13.70
2019-03-22T23:07:42.964Z,13.60
2019-03-22T23:10:12.851Z,13.60
2019-03-22T23:12:42.046Z,13.50
2019-03-22T23:15:11.080Z,13.50
2019-03-22T23:17:39.535Z,13.40
2019-03-22T23:20:10.407Z,13.40
2019-03-22T23:22:38.957Z,13.40
2019-03-22T23:25:08.132Z,13.30
2019-03-22T23:27:37.875Z,13.20
2019-03-22T23:30:11.773Z,13.20
2019-03-22T23:32:40.666Z,13.10
2019-03-22T23:35:09.438Z,13.10
2019-03-22T23:37:37.915Z,13.10
2019-03-22T23:40:07.383Z,13.10
2019-03-22T23:42:35.833Z,13.00
2019-03-22T23:45:06.697Z,13.00
2019-03-22T23:47:35.139Z,12.90
2019-03-22T23:50:07.203Z,12.90
2019-03-22T23:52:35.861Z,12.90
2019-03-22T23:55:05.974Z,12.80
2019-03-22T23:57:34.480Z,12.80
